sensor_id;sensor_type;location;lat;lon;timestamp;P1;durP1;ratioP1;P2;durP2;ratioP2
14984;SDS011;7588;62.368;25.902;2022-11-23T00:00:43;3.67;;;3.37;;
14984;SDS011;7588;62.368;25.902;2022-11-23T00:03:13;3.83;;;3.60;;
14984;SDS011;7588;62.368;25.902;2022-11-23T00:05:40;3.77;;;3.40;;
14984;SDS011;7588;62.368;25.902;2022-11-23T00:08:05;4.30;;;3.87;;
14984;SDS011;7588;62.368;25.902;2022-11-23T00:10:31;3.93;;;3.50;;
14984;SDS011;7588;62.368;25.902;2022-11-23T00:12:57;3.80;;;3.50;;
14984;SDS011;7588;62.368;25.902;2022-11-23T00:15:23;3.73;;;3.43;;
14984;SDS011;7588;62.368;25.902;2022-11-23T00:17:48;3.50;;;3.20;;
14984;SDS011;7588;62.368;25.902;2022-11-23T00:20:14;3.77;;;3.47;;
14984;SDS011;7588;62.368;25.902;2022-11-23T00:22:40;4.90;;;3.60;;
14984;SDS011;7588;62.368;25.902;2022-11-23T00:25:06;2.73;;;2.53;;
14984;SDS011;7588;62.368;25.902;2022-11-23T00:27:35;2.97;;;2.70;;
14984;SDS011;7588;62.368;25.902;2022-11-23T00:30:00;3.17;;;2.90;;
14984;SDS011;7588;62.368;25.902;2022-11-23T00:32:27;3.10;;;2.80;;
14984;SDS011;7588;62.368;25.902;2022-11-23T00:34:54;3.03;;;2.70;;
14984;SDS011;7588;62.368;25.902;2022-11-23T00:37:19;2.93;;;2.73;;
14984;SDS011;7588;62.368;25.902;2022-11-23T00:39:45;3.53;;;3.23;;
14984;SDS011;7588;62.368;25.902;2022-11-23T00:42:11;3.10;;;2.90;;
14984;SDS011;7588;62.368;25.902;2022-11-23T00:44:36;3.10;;;2.90;;
14984;SDS011;7588;62.368;25.902;2022-11-23T00:47:02;2.77;;;2.57;;
14984;SDS011;7588;62.368;25.902;2022-11-23T00:49:28;2.77;;;2.47;;
14984;SDS011;7588;62.368;25.902;2022-11-23T00:51:53;2.50;;;2.40;;
14984;SDS011;7588;62.368;25.902;2022-11-23T00:54:19;2.50;;;2.30;;
14984;SDS011;7588;62.368;25.902;2022-11-23T00:56:45;2.60;;;2.40;;
14984;SDS011;7588;62.368;25.902;2022-11-23T00:59:10;2.60;;;2.50;;
14984;SDS011;7588;62.368;25.902;2022-11-23T01:01:36;2.30;;;2.20;;
14984;SDS011;7588;62.368;25.902;2022-11-23T01:04:03;2.10;;;2.00;;
14984;SDS011;7588;62.368;25.902;2022-11-23T01:06:31;2.50;;;2.40;;
14984;SDS011;7588;62.368;25.902;2022-11-23T01:08:59;2.33;;;2.23;;
14984;SDS011;7588;62.368;25.902;2022-11-23T01:11:49;2.53;;;2.43;;
14984;SDS011;7588;62.368;25.902;2022-11-23T01:14:14;2.47;;;2.37;;
14984;SDS011;7588;62.368;25.902;2022-11-23T01:16:41;1.97;;;1.77;;
14984;SDS011;7588;62.368;25.902;2022-11-23T01:19:09;2.23;;;2.13;;
14984;SDS011;7588;62.368;25.902;2022-11-23T01:21:37;2.20;;;2.10;;
14984;SDS011;7588;62.368;25.902;2022-11-23T01:24:06;2.53;;;2.33;;
14984;SDS011;7588;62.368;25.902;2022-11-23T01:26:33;2.50;;;2.10;;
14984;SDS011;7588;62.368;25.902;2022-11-23T01:28:59;2.30;;;2.20;;
14984;SDS011;7588;62.368;25.902;2022-11-23T01:31:25;2.40;;;2.30;;
14984;SDS011;7588;62.368;25.902;2022-11-23T01:33:52;2.17;;;2.07;;
14984;SDS011;7588;62.368;25.902;2022-11-23T01:36:20;2.10;;;2.00;;
14984;SDS011;7588;62.368;25.902;2022-11-23T01:38:47;2.40;;;2.30;;
14984;SDS011;7588;62.368;25.902;2022-11-23T01:41:17;2.30;;;2.20;;
14984;SDS011;7588;62.368;25.902;2022-11-23T01:43:48;1.70;;;1.60;;
14984;SDS011;7588;62.368;25.902;2022-11-23T01:46:15;2.23;;;2.13;;
14984;SDS011;7588;62.368;25.902;2022-11-23T01:48:42;1.80;;;1.70;;
14984;SDS011;7588;62.368;25.902;2022-11-23T01:51:15;2.53;;;2.43;;
14984;SDS011;7588;62.368;25.902;2022-11-23T01:53:45;2.27;;;2.17;;
14984;SDS011;7588;62.368;25.902;2022-11-23T01:56:17;1.60;;;1.50;;
14984;SDS011;7588;62.368;25.902;2022-11-23T01:58:49;2.20;;;2.10;;
14984;SDS011;7588;62.368;25.902;2022-11-23T02:01:18;2.00;;;1.90;;
14984;SDS011;7588;62.368;25.902;2022-11-23T02:03:45;2.53;;;2.40;;
14984;SDS011;7588;62.368;25.902;2022-11-23T02:06:18;1.87;;;1.77;;
14984;SDS011;7588;62.368;25.902;2022-11-23T02:08:46;1.90;;;1.80;;
14984;SDS011;7588;62.368;25.902;2022-11-23T02:11:13;2.40;;;2.30;;
14984;SDS011;7588;62.368;25.902;2022-11-23T02:13:40;1.97;;;1.87;;
14984;SDS011;7588;62.368;25.902;2022-11-23T02:16:08;2.33;;;2.23;;
14984;SDS011;7588;62.368;25.902;2022-11-23T02:18:34;1.90;;;1.80;;
14984;SDS011;7588;62.368;25.902;2022-11-23T02:21:01;2.47;;;2.37;;
14984;SDS011;7588;62.368;25.902;2022-11-23T02:29:15;2.03;;;1.93;;
14984;SDS011;7588;62.368;25.902;2022-11-23T02:31:32;2.43;;;2.33;;
14984;SDS011;7588;62.368;25.902;2022-11-23T02:33:58;2.60;;;2.50;;
14984;SDS011;7588;62.368;25.902;2022-11-23T02:38:56;2.20;;;2.10;;
14984;SDS011;7588;62.368;25.902;2022-11-23T02:41:23;2.13;;;2.03;;
14984;SDS011;7588;62.368;25.902;2022-11-23T02:43:50;3.00;;;1.87;;
14984;SDS011;7588;62.368;25.902;2022-11-23T02:46:20;2.30;;;2.20;;
14984;SDS011;7588;62.368;25.902;2022-11-23T02:48:46;2.17;;;2.07;;
14984;SDS011;7588;62.368;25.902;2022-11-23T02:51:11;2.20;;;2.10;;
14984;SDS011;7588;62.368;25.902;2022-11-23T02:53:38;1.90;;;1.80;;
14984;SDS011;7588;62.368;25.902;2022-11-23T02:56:04;2.10;;;2.00;;
14984;SDS011;7588;62.368;25.902;2022-11-23T02:58:29;1.80;;;1.70;;
14984;SDS011;7588;62.368;25.902;2022-11-23T03:00:55;2.20;;;2.10;;
14984;SDS011;7588;62.368;25.902;2022-11-23T03:03:21;2.30;;;2.20;;
14984;SDS011;7588;62.368;25.902;2022-11-23T03:05:46;1.50;;;1.50;;
14984;SDS011;7588;62.368;25.902;2022-11-23T03:08:12;2.03;;;1.93;;
14984;SDS011;7588;62.368;25.902;2022-11-23T03:10:38;1.80;;;1.80;;
14984;SDS011;7588;62.368;25.902;2022-11-23T03:13:04;2.10;;;2.00;;
14984;SDS011;7588;62.368;25.902;2022-11-23T03:15:29;2.50;;;2.40;;
14984;SDS011;7588;62.368;25.902;2022-11-23T03:17:56;1.90;;;1.80;;
14984;SDS011;7588;62.368;25.902;2022-11-23T03:20:22;1.93;;;1.83;;
14984;SDS011;7588;62.368;25.902;2022-11-23T03:22:48;2.87;;;2.67;;
14984;SDS011;7588;62.368;25.902;2022-11-23T03:25:13;2.20;;;2.10;;
14984;SDS011;7588;62.368;25.902;2022-11-23T03:27:39;2.03;;;1.93;;
14984;SDS011;7588;62.368;25.902;2022-11-23T03:30:06;1.60;;;1.50;;
14984;SDS011;7588;62.368;25.902;2022-11-23T03:32:33;1.97;;;1.87;;
14984;SDS011;7588;62.368;25.902;2022-11-23T03:34:59;2.03;;;1.93;;
14984;SDS011;7588;62.368;25.902;2022-11-23T03:37:25;2.27;;;2.17;;
14984;SDS011;7588;62.368;25.902;2022-11-23T03:39:51;1.80;;;1.70;;
14984;SDS011;7588;62.368;25.902;2022-11-23T03:42:17;1.70;;;1.60;;
14984;SDS011;7588;62.368;25.902;2022-11-23T03:44:42;2.60;;;2.40;;
14984;SDS011;7588;62.368;25.902;2022-11-23T03:47:08;2.13;;;2.03;;
14984;SDS011;7588;62.368;25.902;2022-11-23T03:49:35;1.63;;;1.63;;
14984;SDS011;7588;62.368;25.902;2022-11-23T03:52:00;2.10;;;2.00;;
14984;SDS011;7588;62.368;25.902;2022-11-23T03:54:26;1.67;;;1.60;;
14984;SDS011;7588;62.368;25.902;2022-11-23T03:56:52;2.20;;;2.10;;
14984;SDS011;7588;62.368;25.902;2022-11-23T03:59:17;1.60;;;1.60;;
14984;SDS011;7588;62.368;25.902;2022-11-23T04:01:43;2.30;;;2.20;;
14984;SDS011;7588;62.368;25.902;2022-11-23T04:04:09;2.20;;;2.10;;
14984;SDS011;7588;62.368;25.902;2022-11-23T04:06:34;2.20;;;2.10;;
14984;SDS011;7588;62.368;25.902;2022-11-23T04:09:00;2.03;;;1.93;;
14984;SDS011;7588;62.368;25.902;2022-11-23T04:11:26;1.60;;;1.60;;
14984;SDS011;7588;62.368;25.902;2022-11-23T04:13:52;1.97;;;1.87;;
14984;SDS011;7588;62.368;25.902;2022-11-23T04:16:17;2.10;;;2.00;;
14984;SDS011;7588;62.368;25.902;2022-11-23T04:18:43;1.60;;;1.60;;
14984;SDS011;7588;62.368;25.902;2022-11-23T04:21:09;2.67;;;2.57;;
14984;SDS011;7588;62.368;25.902;2022-11-23T04:23:34;1.77;;;1.70;;
14984;SDS011;7588;62.368;25.902;2022-11-23T04:26:00;2.20;;;2.10;;
14984;SDS011;7588;62.368;25.902;2022-11-23T04:28:26;2.20;;;2.10;;
14984;SDS011;7588;62.368;25.902;2022-11-23T04:30:52;2.43;;;2.33;;
14984;SDS011;7588;62.368;25.902;2022-11-23T04:33:17;1.90;;;1.80;;
14984;SDS011;7588;62.368;25.902;2022-11-23T04:35:43;2.20;;;2.10;;
14984;SDS011;7588;62.368;25.902;2022-11-23T04:38:09;2.43;;;2.33;;
14984;SDS011;7588;62.368;25.902;2022-11-23T04:40:35;2.10;;;2.00;;
14984;SDS011;7588;62.368;25.902;2022-11-23T04:43:01;2.00;;;1.90;;
14984;SDS011;7588;62.368;25.902;2022-11-23T04:45:26;2.30;;;2.20;;
14984;SDS011;7588;62.368;25.902;2022-11-23T04:47:52;1.90;;;1.80;;
14984;SDS011;7588;62.368;25.902;2022-11-23T04:50:18;1.90;;;1.80;;
14984;SDS011;7588;62.368;25.902;2022-11-23T04:52:43;2.37;;;2.27;;
14984;SDS011;7588;62.368;25.902;2022-11-23T04:55:09;2.00;;;1.90;;
14984;SDS011;7588;62.368;25.902;2022-11-23T04:57:35;2.13;;;1.97;;
14984;SDS011;7588;62.368;25.902;2022-11-23T05:00:01;2.20;;;2.10;;
14984;SDS011;7588;62.368;25.902;2022-11-23T05:02:27;2.87;;;2.67;;
14984;SDS011;7588;62.368;25.902;2022-11-23T05:04:53;2.53;;;2.43;;
14984;SDS011;7588;62.368;25.902;2022-11-23T05:07:18;2.73;;;2.53;;
14984;SDS011;7588;62.368;25.902;2022-11-23T05:09:44;2.03;;;1.93;;
14984;SDS011;7588;62.368;25.902;2022-11-23T05:12:10;2.23;;;2.13;;
14984;SDS011;7588;62.368;25.902;2022-11-23T05:14:36;2.40;;;2.30;;
14984;SDS011;7588;62.368;25.902;2022-11-23T05:17:01;2.80;;;2.70;;
14984;SDS011;7588;62.368;25.902;2022-11-23T05:19:27;3.60;;;2.77;;
14984;SDS011;7588;62.368;25.902;2022-11-23T05:21:53;1.97;;;1.87;;
14984;SDS011;7588;62.368;25.902;2022-11-23T05:24:18;2.30;;;2.20;;
14984;SDS011;7588;62.368;25.902;2022-11-23T05:26:44;2.70;;;2.60;;
14984;SDS011;7588;62.368;25.902;2022-11-23T05:29:10;3.07;;;2.87;;
14984;SDS011;7588;62.368;25.902;2022-11-23T05:31:35;2.13;;;2.03;;
14984;SDS011;7588;62.368;25.902;2022-11-23T05:34:01;3.03;;;2.70;;
14984;SDS011;7588;62.368;25.902;2022-11-23T05:36:28;2.70;;;2.50;;
14984;SDS011;7588;62.368;25.902;2022-11-23T05:38:54;2.13;;;2.03;;
14984;SDS011;7588;62.368;25.902;2022-11-23T05:41:19;3.00;;;2.70;;
14984;SDS011;7588;62.368;25.902;2022-11-23T05:43:45;2.70;;;2.50;;
14984;SDS011;7588;62.368;25.902;2022-11-23T05:46:11;3.57;;;3.37;;
14984;SDS011;7588;62.368;25.902;2022-11-23T05:48:36;2.50;;;2.37;;
14984;SDS011;7588;62.368;25.902;2022-11-23T05:51:02;2.57;;;2.40;;
14984;SDS011;7588;62.368;25.902;2022-11-23T05:53:29;3.37;;;3.17;;
14984;SDS011;7588;62.368;25.902;2022-11-23T05:56:01;3.10;;;2.97;;
14984;SDS011;7588;62.368;25.902;2022-11-23T05:58:27;3.10;;;2.90;;
14984;SDS011;7588;62.368;25.902;2022-11-23T06:00:59;2.63;;;2.53;;
14984;SDS011;7588;62.368;25.902;2022-11-23T06:03:26;2.60;;;2.50;;
14984;SDS011;7588;62.368;25.902;2022-11-23T06:05:51;2.77;;;2.57;;
14984;SDS011;7588;62.368;25.902;2022-11-23T06:08:17;2.23;;;2.13;;
14984;SDS011;7588;62.368;25.902;2022-11-23T06:10:43;2.80;;;2.60;;
14984;SDS011;7588;62.368;25.902;2022-11-23T06:13:09;3.03;;;2.83;;
14984;SDS011;7588;62.368;25.902;2022-11-23T06:15:34;2.47;;;2.37;;
14984;SDS011;7588;62.368;25.902;2022-11-23T06:18:00;2.73;;;2.63;;
14984;SDS011;7588;62.368;25.902;2022-11-23T06:20:27;2.93;;;2.73;;
14984;SDS011;7588;62.368;25.902;2022-11-23T06:22:53;2.67;;;2.47;;
14984;SDS011;7588;62.368;25.902;2022-11-23T06:25:20;3.00;;;2.80;;
14984;SDS011;7588;62.368;25.902;2022-11-23T06:27:56;2.63;;;2.43;;
14984;SDS011;7588;62.368;25.902;2022-11-23T06:30:24;3.10;;;2.80;;
14984;SDS011;7588;62.368;25.902;2022-11-23T06:32:51;2.67;;;2.57;;
14984;SDS011;7588;62.368;25.902;2022-11-23T06:35:17;3.67;;;2.50;;
14984;SDS011;7588;62.368;25.902;2022-11-23T06:37:43;3.00;;;2.80;;
14984;SDS011;7588;62.368;25.902;2022-11-23T06:40:11;2.70;;;2.50;;
14984;SDS011;7588;62.368;25.902;2022-11-23T06:42:37;3.73;;;3.43;;
14984;SDS011;7588;62.368;25.902;2022-11-23T06:45:03;4.30;;;3.90;;
14984;SDS011;7588;62.368;25.902;2022-11-23T06:47:29;3.27;;;3.00;;
14984;SDS011;7588;62.368;25.902;2022-11-23T06:49:55;3.30;;;3.00;;
14984;SDS011;7588;62.368;25.902;2022-11-23T06:52:20;3.17;;;2.90;;
14984;SDS011;7588;62.368;25.902;2022-11-23T06:54:46;2.37;;;2.27;;
14984;SDS011;7588;62.368;25.902;2022-11-23T06:57:12;3.10;;;2.90;;
14984;SDS011;7588;62.368;25.902;2022-11-23T06:59:38;2.53;;;2.43;;
14984;SDS011;7588;62.368;25.902;2022-11-23T07:02:03;2.70;;;2.60;;
14984;SDS011;7588;62.368;25.902;2022-11-23T07:04:30;3.27;;;3.07;;
14984;SDS011;7588;62.368;25.902;2022-11-23T07:06:56;3.10;;;2.90;;
14984;SDS011;7588;62.368;25.902;2022-11-23T07:09:21;3.23;;;3.03;;
14984;SDS011;7588;62.368;25.902;2022-11-23T07:11:47;2.80;;;2.60;;
14984;SDS011;7588;62.368;25.902;2022-11-23T07:14:13;2.90;;;2.70;;
14984;SDS011;7588;62.368;25.902;2022-11-23T07:16:39;2.27;;;2.17;;
14984;SDS011;7588;62.368;25.902;2022-11-23T07:19:05;1.97;;;1.87;;
14984;SDS011;7588;62.368;25.902;2022-11-23T07:21:30;2.80;;;2.60;;
14984;SDS011;7588;62.368;25.902;2022-11-23T07:23:56;2.80;;;2.70;;
14984;SDS011;7588;62.368;25.902;2022-11-23T07:26:22;2.40;;;2.30;;
14984;SDS011;7588;62.368;25.902;2022-11-23T07:28:47;3.13;;;2.93;;
14984;SDS011;7588;62.368;25.902;2022-11-23T07:31:13;3.20;;;3.00;;
14984;SDS011;7588;62.368;25.902;2022-11-23T07:33:44;2.17;;;2.07;;
14984;SDS011;7588;62.368;25.902;2022-11-23T07:36:10;2.80;;;2.70;;
14984;SDS011;7588;62.368;25.902;2022-11-23T07:38:36;2.87;;;2.73;;
14984;SDS011;7588;62.368;25.902;2022-11-23T07:41:02;3.93;;;3.03;;
14984;SDS011;7588;62.368;25.902;2022-11-23T07:43:28;3.30;;;3.10;;
14984;SDS011;7588;62.368;25.902;2022-11-23T07:45:54;2.30;;;2.20;;
14984;SDS011;7588;62.368;25.902;2022-11-23T07:48:21;3.10;;;2.90;;
14984;SDS011;7588;62.368;25.902;2022-11-23T07:50:50;2.20;;;2.10;;
14984;SDS011;7588;62.368;25.902;2022-11-23T07:53:17;2.37;;;2.27;;
14984;SDS011;7588;62.368;25.902;2022-11-23T07:55:43;3.07;;;2.87;;
14984;SDS011;7588;62.368;25.902;2022-11-23T07:58:09;3.27;;;2.97;;
14984;SDS011;7588;62.368;25.902;2022-11-23T08:00:35;2.90;;;2.70;;
14984;SDS011;7588;62.368;25.902;2022-11-23T08:03:02;2.90;;;2.70;;
14984;SDS011;7588;62.368;25.902;2022-11-23T08:05:29;2.33;;;2.13;;
14984;SDS011;7588;62.368;25.902;2022-11-23T08:07:59;3.40;;;3.20;;
14984;SDS011;7588;62.368;25.902;2022-11-23T08:10:26;4.47;;;2.90;;
14984;SDS011;7588;62.368;25.902;2022-11-23T08:12:55;3.23;;;3.03;;
14984;SDS011;7588;62.368;25.902;2022-11-23T08:15:22;3.40;;;3.20;;
14984;SDS011;7588;62.368;25.902;2022-11-23T08:17:48;2.93;;;2.73;;
14984;SDS011;7588;62.368;25.902;2022-11-23T08:20:17;2.40;;;2.30;;
14984;SDS011;7588;62.368;25.902;2022-11-23T08:22:43;2.53;;;2.43;;
14984;SDS011;7588;62.368;25.902;2022-11-23T08:25:09;2.77;;;2.57;;
14984;SDS011;7588;62.368;25.902;2022-11-23T08:27:35;3.13;;;2.93;;
14984;SDS011;7588;62.368;25.902;2022-11-23T08:30:00;3.27;;;2.97;;
14984;SDS011;7588;62.368;25.902;2022-11-23T08:32:26;3.50;;;3.20;;
14984;SDS011;7588;62.368;25.902;2022-11-23T08:34:52;2.10;;;1.90;;
14984;SDS011;7588;62.368;25.902;2022-11-23T08:37:17;2.93;;;2.73;;
14984;SDS011;7588;62.368;25.902;2022-11-23T08:39:43;3.20;;;3.00;;
14984;SDS011;7588;62.368;25.902;2022-11-23T08:42:09;3.67;;;3.37;;
14984;SDS011;7588;62.368;25.902;2022-11-23T08:44:34;3.23;;;3.00;;
14984;SDS011;7588;62.368;25.902;2022-11-23T08:47:00;2.43;;;2.27;;
14984;SDS011;7588;62.368;25.902;2022-11-23T08:49:26;2.80;;;2.60;;
14984;SDS011;7588;62.368;25.902;2022-11-23T08:51:52;3.20;;;3.00;;
14984;SDS011;7588;62.368;25.902;2022-11-23T08:54:18;3.13;;;2.83;;
14984;SDS011;7588;62.368;25.902;2022-11-23T08:56:44;3.50;;;3.30;;
14984;SDS011;7588;62.368;25.902;2022-11-23T08:59:10;2.27;;;2.10;;
14984;SDS011;7588;62.368;25.902;2022-11-23T09:01:36;3.10;;;2.90;;
14984;SDS011;7588;62.368;25.902;2022-11-23T09:04:02;2.50;;;2.30;;
14984;SDS011;7588;62.368;25.902;2022-11-23T09:06:31;3.17;;;2.97;;
14984;SDS011;7588;62.368;25.902;2022-11-23T09:08:58;2.43;;;2.30;;
14984;SDS011;7588;62.368;25.902;2022-11-23T09:11:23;2.77;;;2.57;;
14984;SDS011;7588;62.368;25.902;2022-11-23T09:13:50;3.17;;;2.97;;
14984;SDS011;7588;62.368;25.902;2022-11-23T09:16:16;3.50;;;3.30;;
14984;SDS011;7588;62.368;25.902;2022-11-23T09:18:42;3.33;;;2.43;;
14984;SDS011;7588;62.368;25.902;2022-11-23T09:21:08;2.73;;;2.53;;
14984;SDS011;7588;62.368;25.902;2022-11-23T09:23:34;3.00;;;2.70;;
14984;SDS011;7588;62.368;25.902;2022-11-23T09:26:00;3.20;;;3.00;;
14984;SDS011;7588;62.368;25.902;2022-11-23T09:28:27;3.40;;;3.20;;
14984;SDS011;7588;62.368;25.902;2022-11-23T09:30:54;3.30;;;3.10;;
14984;SDS011;7588;62.368;25.902;2022-11-23T09:33:21;3.57;;;3.27;;
14984;SDS011;7588;62.368;25.902;2022-11-23T09:35:55;3.20;;;2.93;;
14984;SDS011;7588;62.368;25.902;2022-11-23T09:38:25;3.20;;;3.00;;
14984;SDS011;7588;62.368;25.902;2022-11-23T09:46:21;3.20;;;3.00;;
14984;SDS011;7588;62.368;25.902;2022-11-23T09:51:41;2.53;;;2.30;;
14984;SDS011;7588;62.368;25.902;2022-11-23T09:56:52;4.77;;;2.10;;
14984;SDS011;7588;62.368;25.902;2022-11-23T09:59:30;2.33;;;2.17;;
14984;SDS011;7588;62.368;25.902;2022-11-23T10:02:18;3.00;;;2.80;;
14984;SDS011;7588;62.368;25.902;2022-11-23T10:04:46;3.00;;;2.80;;
14984;SDS011;7588;62.368;25.902;2022-11-23T10:10:03;2.67;;;2.57;;
14984;SDS011;7588;62.368;25.902;2022-11-23T10:18:27;2.90;;;2.70;;
14984;SDS011;7588;62.368;25.902;2022-11-23T10:21:12;2.77;;;2.57;;
14984;SDS011;7588;62.368;25.902;2022-11-23T10:23:53;3.53;;;2.37;;
14984;SDS011;7588;62.368;25.902;2022-11-23T10:26:23;2.60;;;2.40;;
14984;SDS011;7588;62.368;25.902;2022-11-23T10:28:56;3.20;;;2.90;;
14984;SDS011;7588;62.368;25.902;2022-11-23T10:31:30;3.53;;;3.30;;
14984;SDS011;7588;62.368;25.902;2022-11-23T10:34:10;2.60;;;2.40;;
14984;SDS011;7588;62.368;25.902;2022-11-23T10:36:39;3.17;;;2.97;;
14984;SDS011;7588;62.368;25.902;2022-11-23T10:39:16;3.90;;;2.80;;
14984;SDS011;7588;62.368;25.902;2022-11-23T10:41:43;2.87;;;2.67;;
14984;SDS011;7588;62.368;25.902;2022-11-23T10:46:55;2.50;;;2.40;;
14984;SDS011;7588;62.368;25.902;2022-11-23T10:51:54;2.93;;;2.73;;
14984;SDS011;7588;62.368;25.902;2022-11-23T11:00:13;3.00;;;2.80;;
14984;SDS011;7588;62.368;25.902;2022-11-23T11:02:45;3.03;;;2.83;;
14984;SDS011;7588;62.368;25.902;2022-11-23T11:07:53;2.70;;;2.60;;
14984;SDS011;7588;62.368;25.902;2022-11-23T11:12:58;2.33;;;2.23;;
14984;SDS011;7588;62.368;25.902;2022-11-23T11:15:24;2.87;;;2.67;;
14984;SDS011;7588;62.368;25.902;2022-11-23T11:17:53;3.20;;;3.00;;
14984;SDS011;7588;62.368;25.902;2022-11-23T11:22:56;3.60;;;3.30;;
14984;SDS011;7588;62.368;25.902;2022-11-23T11:27:58;3.00;;;2.80;;
14984;SDS011;7588;62.368;25.902;2022-11-23T11:30:27;3.40;;;3.10;;
14984;SDS011;7588;62.368;25.902;2022-11-23T11:33:13;2.73;;;2.53;;
14984;SDS011;7588;62.368;25.902;2022-11-23T11:35:46;2.80;;;2.70;;
14984;SDS011;7588;62.368;25.902;2022-11-23T11:38:19;3.00;;;2.80;;
14984;SDS011;7588;62.368;25.902;2022-11-23T11:40:48;2.10;;;2.00;;
14984;SDS011;7588;62.368;25.902;2022-11-23T11:43:26;5.13;;;3.40;;
14984;SDS011;7588;62.368;25.902;2022-11-23T11:45:59;2.80;;;2.60;;
14984;SDS011;7588;62.368;25.902;2022-11-23T11:48:50;3.30;;;3.03;;
14984;SDS011;7588;62.368;25.902;2022-11-23T11:51:26;2.80;;;2.70;;
14984;SDS011;7588;62.368;25.902;2022-11-23T11:54:02;1.83;;;1.73;;
14984;SDS011;7588;62.368;25.902;2022-11-23T12:01:43;3.17;;;2.97;;
14984;SDS011;7588;62.368;25.902;2022-11-23T12:04:17;3.40;;;3.10;;
14984;SDS011;7588;62.368;25.902;2022-11-23T12:06:53;3.93;;;3.63;;
14984;SDS011;7588;62.368;25.902;2022-11-23T12:09:29;4.73;;;4.33;;
14984;SDS011;7588;62.368;25.902;2022-11-23T12:12:01;3.60;;;3.30;;
14984;SDS011;7588;62.368;25.902;2022-11-23T12:14:30;4.10;;;3.70;;
14984;SDS011;7588;62.368;25.902;2022-11-23T12:25:38;3.53;;;3.23;;
14984;SDS011;7588;62.368;25.902;2022-11-23T12:34:06;3.50;;;3.20;;
14984;SDS011;7588;62.368;25.902;2022-11-23T12:42:16;5.60;;;5.10;;
14984;SDS011;7588;62.368;25.902;2022-11-23T12:45:24;3.43;;;3.13;;
14984;SDS011;7588;62.368;25.902;2022-11-23T12:50:51;5.37;;;2.97;;
14984;SDS011;7588;62.368;25.902;2022-11-23T12:56:27;3.17;;;2.87;;
14984;SDS011;7588;62.368;25.902;2022-11-23T12:59:14;2.87;;;2.67;;
14984;SDS011;7588;62.368;25.902;2022-11-23T13:01:48;3.50;;;3.20;;
14984;SDS011;7588;62.368;25.902;2022-11-23T13:12:43;3.80;;;3.00;;
14984;SDS011;7588;62.368;25.902;2022-11-23T13:15:53;4.50;;;4.20;;
14984;SDS011;7588;62.368;25.902;2022-11-23T13:23:41;2.30;;;2.20;;
14984;SDS011;7588;62.368;25.902;2022-11-23T13:28:39;2.93;;;2.73;;
14984;SDS011;7588;62.368;25.902;2022-11-23T13:33:41;5.33;;;3.57;;
14984;SDS011;7588;62.368;25.902;2022-11-23T13:36:09;3.13;;;2.93;;
14984;SDS011;7588;62.368;25.902;2022-11-23T13:38:42;5.90;;;3.00;;
14984;SDS011;7588;62.368;25.902;2022-11-23T13:46:43;2.73;;;2.63;;
14984;SDS011;7588;62.368;25.902;2022-11-23T13:57:30;3.40;;;3.20;;
14984;SDS011;7588;62.368;25.902;2022-11-23T14:04:18;2.73;;;2.63;;
14984;SDS011;7588;62.368;25.902;2022-11-23T14:08:35;2.30;;;2.20;;
14984;SDS011;7588;62.368;25.902;2022-11-23T14:11:08;2.57;;;2.47;;
14984;SDS011;7588;62.368;25.902;2022-11-23T14:13:44;2.53;;;2.40;;
14984;SDS011;7588;62.368;25.902;2022-11-23T14:16:27;3.43;;;2.53;;
14984;SDS011;7588;62.368;25.902;2022-11-23T14:22:07;2.73;;;2.63;;
14984;SDS011;7588;62.368;25.902;2022-11-23T14:24:52;2.50;;;2.40;;
14984;SDS011;7588;62.368;25.902;2022-11-23T14:27:39;2.27;;;2.17;;
14984;SDS011;7588;62.368;25.902;2022-11-23T14:30:32;2.83;;;2.73;;
14984;SDS011;7588;62.368;25.902;2022-11-23T14:39:25;2.60;;;2.50;;
14984;SDS011;7588;62.368;25.902;2022-11-23T14:42:02;2.60;;;2.50;;
14984;SDS011;7588;62.368;25.902;2022-11-23T14:44:35;2.20;;;2.10;;
14984;SDS011;7588;62.368;25.902;2022-11-23T14:47:06;3.07;;;2.90;;
14984;SDS011;7588;62.368;25.902;2022-11-23T14:49:34;2.50;;;2.40;;
14984;SDS011;7588;62.368;25.902;2022-11-23T14:52:01;2.80;;;2.60;;
14984;SDS011;7588;62.368;25.902;2022-11-23T14:54:28;2.73;;;2.53;;
14984;SDS011;7588;62.368;25.902;2022-11-23T14:56:56;4.20;;;3.13;;
14984;SDS011;7588;62.368;25.902;2022-11-23T14:59:31;5.10;;;2.20;;
14984;SDS011;7588;62.368;25.902;2022-11-23T15:02:02;2.43;;;2.23;;
14984;SDS011;7588;62.368;25.902;2022-11-23T15:04:30;2.97;;;2.77;;
14984;SDS011;7588;62.368;25.902;2022-11-23T15:07:01;3.90;;;3.60;;
14984;SDS011;7588;62.368;25.902;2022-11-23T15:12:25;3.40;;;3.20;;
14984;SDS011;7588;62.368;25.902;2022-11-23T15:14:53;5.77;;;3.57;;
14984;SDS011;7588;62.368;25.902;2022-11-23T15:17:23;2.80;;;2.60;;
14984;SDS011;7588;62.368;25.902;2022-11-23T15:19:56;4.17;;;3.87;;
14984;SDS011;7588;62.368;25.902;2022-11-23T15:22:25;7.70;;;3.90;;
14984;SDS011;7588;62.368;25.902;2022-11-23T15:24:52;3.77;;;3.47;;
14984;SDS011;7588;62.368;25.902;2022-11-23T15:27:25;3.43;;;3.23;;
14984;SDS011;7588;62.368;25.902;2022-11-23T15:29:55;3.60;;;3.40;;
14984;SDS011;7588;62.368;25.902;2022-11-23T15:32:24;3.33;;;3.13;;
14984;SDS011;7588;62.368;25.902;2022-11-23T15:34:52;4.07;;;3.57;;
14984;SDS011;7588;62.368;25.902;2022-11-23T15:37:21;3.70;;;3.40;;
14984;SDS011;7588;62.368;25.902;2022-11-23T15:39:48;4.17;;;3.70;;
14984;SDS011;7588;62.368;25.902;2022-11-23T15:42:19;3.67;;;3.37;;
14984;SDS011;7588;62.368;25.902;2022-11-23T15:44:47;4.00;;;3.70;;
14984;SDS011;7588;62.368;25.902;2022-11-23T15:47:14;4.20;;;3.40;;
14984;SDS011;7588;62.368;25.902;2022-11-23T15:49:59;5.00;;;4.50;;
14984;SDS011;7588;62.368;25.902;2022-11-23T15:52:27;5.73;;;3.87;;
14984;SDS011;7588;62.368;25.902;2022-11-23T15:55:00;9.27;;;4.40;;
14984;SDS011;7588;62.368;25.902;2022-11-23T15:57:30;4.87;;;4.17;;
14984;SDS011;7588;62.368;25.902;2022-11-23T15:59:57;5.20;;;3.83;;
14984;SDS011;7588;62.368;25.902;2022-11-23T16:02:26;4.80;;;4.37;;
14984;SDS011;7588;62.368;25.902;2022-11-23T16:07:52;6.07;;;4.60;;
14984;SDS011;7588;62.368;25.902;2022-11-23T16:10:23;6.60;;;4.90;;
14984;SDS011;7588;62.368;25.902;2022-11-23T16:12:51;10.67;;;7.43;;
14984;SDS011;7588;62.368;25.902;2022-11-23T16:18:23;5.30;;;4.80;;
14984;SDS011;7588;62.368;25.902;2022-11-23T16:21:02;7.10;;;5.37;;
14984;SDS011;7588;62.368;25.902;2022-11-23T16:23:47;6.90;;;5.13;;
14984;SDS011;7588;62.368;25.902;2022-11-23T16:26:27;6.47;;;5.23;;
14984;SDS011;7588;62.368;25.902;2022-11-23T16:28:56;8.27;;;5.20;;
14984;SDS011;7588;62.368;25.902;2022-11-23T16:31:29;7.73;;;5.27;;
14984;SDS011;7588;62.368;25.902;2022-11-23T16:34:01;7.90;;;6.03;;
14984;SDS011;7588;62.368;25.902;2022-11-23T16:36:37;12.33;;;10.03;;
14984;SDS011;7588;62.368;25.902;2022-11-23T16:39:03;15.30;;;10.60;;
14984;SDS011;7588;62.368;25.902;2022-11-23T16:41:29;6.80;;;5.87;;
14984;SDS011;7588;62.368;25.902;2022-11-23T16:43:54;6.67;;;5.40;;
14984;SDS011;7588;62.368;25.902;2022-11-23T16:46:20;8.87;;;5.30;;
14984;SDS011;7588;62.368;25.902;2022-11-23T16:48:46;8.87;;;6.27;;
14984;SDS011;7588;62.368;25.902;2022-11-23T16:51:12;10.97;;;7.73;;
14984;SDS011;7588;62.368;25.902;2022-11-23T16:53:42;10.00;;;6.77;;
14984;SDS011;7588;62.368;25.902;2022-11-23T16:56:08;10.13;;;9.00;;
14984;SDS011;7588;62.368;25.902;2022-11-23T16:58:39;14.23;;;9.13;;
14984;SDS011;7588;62.368;25.902;2022-11-23T17:01:04;9.93;;;6.63;;
14984;SDS011;7588;62.368;25.902;2022-11-23T17:03:34;10.10;;;5.77;;
14984;SDS011;7588;62.368;25.902;2022-11-23T17:06:05;8.03;;;5.50;;
14984;SDS011;7588;62.368;25.902;2022-11-23T17:08:31;10.17;;;6.63;;
14984;SDS011;7588;62.368;25.902;2022-11-23T17:10:57;10.73;;;6.73;;
14984;SDS011;7588;62.368;25.902;2022-11-23T17:13:23;11.73;;;6.47;;